WATT/KOE METAR and TAF weather

Enter ICAO airport designator
Station Type Date Time Source
WATT METAR 2019/12/07 00:00 UTC NOAA

WATT 070000Z VRB01KT 9999 SCT018 30/25 Q1012 NOSIG


Station Type Date Time Source
WATT Decoded METAR 2019/12/07 00:00 UTC NOAA

Station name not available
Dec 06, 2019 - 07:00 PM EST / 2019.12.07 0000 UTC
Wind: Variable at 1 MPH (1 KT):0
Visibility: greater than 7 mile(s):0
Sky conditions: partly cloudy
Temperature: 86 F (30 C)
Heat index: 96.8 F (36.0 C):1
Dew Point: 77 F (25 C)
Relative Humidity: 74%
Pressure (altimeter): 29.88 in. Hg (1012 hPa)
ob: WATT 070000Z VRB01KT 9999 SCT018 30/25 Q1012 NOSIG
cycle: 0

Station Type Date Time Source
WATT TAF 2019/12/06 18:00 UTC NOAA

TAF WATT 061700Z 0618/0718 30005KT 8000 SCT017 PROB30
TEMPO 0705/0709 4000 TSRA FEW015CB BKN015
BECMG 0712/0718 12005KT

Example: see airport list